createdAt,value
2018-12-14T00:00:05.413Z,13.10
2018-12-14T00:02:32.961Z,14.10
2018-12-14T00:05:00.529Z,12.68
2018-12-14T00:07:27.866Z,12.53
2018-12-14T00:09:55.184Z,11.78
2018-12-14T00:12:22.623Z,12.90
2018-12-14T00:14:49.899Z,13.10
2018-12-14T00:17:17.208Z,12.85
2018-12-14T00:19:44.605Z,13.58
2018-12-14T00:22:23.056Z,13.28
2018-12-14T00:24:50.371Z,13.88
2018-12-14T00:27:19.827Z,13.22
2018-12-14T00:29:47.201Z,13.83
2018-12-14T00:32:15.632Z,13.50
2018-12-14T00:34:42.941Z,13.03
2018-12-14T00:37:10.264Z,13.70
2018-12-14T00:39:37.576Z,12.85
2018-12-14T00:42:05.899Z,13.20
2018-12-14T00:44:33.209Z,14.30
2018-12-14T00:47:00.637Z,13.40
2018-12-14T00:49:27.954Z,13.00
2018-12-14T00:51:55.207Z,13.20
2018-12-14T00:54:22.480Z,11.90
2018-12-14T00:56:49.780Z,14.23
2018-12-14T00:59:19.533Z,13.65
2018-12-14T01:01:46.856Z,12.82
2018-12-14T01:04:14.226Z,14.58
2018-12-14T01:06:41.525Z,13.65
2018-12-14T01:09:08.829Z,15.55
2018-12-14T01:11:36.181Z,15.40
2018-12-14T01:14:03.499Z,13.40
2018-12-14T01:16:30.777Z,14.53
2018-12-14T01:18:58.020Z,13.13
2018-12-14T01:21:25.375Z,13.13
2018-12-14T01:23:52.647Z,13.43
2018-12-14T01:26:20.283Z,13.93
2018-12-14T01:28:57.531Z,13.83
2018-12-14T01:31:25.021Z,15.03
2018-12-14T01:33:52.556Z,14.45
2018-12-14T01:36:20.255Z,14.80
2018-12-14T01:38:47.589Z,14.25
2018-12-14T01:41:14.943Z,14.63
2018-12-14T01:43:42.251Z,14.30
2018-12-14T01:46:16.767Z,12.88
2018-12-14T01:48:44.099Z,13.18
2018-12-14T01:51:12.504Z,13.70
2018-12-14T01:53:39.765Z,13.48
2018-12-14T01:56:07.836Z,15.25
2018-12-14T01:58:35.141Z,15.58
2018-12-14T02:01:02.837Z,16.07
2018-12-14T02:03:30.160Z,14.28
2018-12-14T02:05:57.446Z,14.33
2018-12-14T02:08:24.880Z,14.75
2018-12-14T02:10:52.220Z,15.70
2018-12-14T02:13:19.522Z,15.38
2018-12-14T02:15:46.828Z,15.28
2018-12-14T02:18:22.415Z,17.15
2018-12-14T02:20:50.489Z,13.80
2018-12-14T02:23:17.843Z,16.52
2018-12-14T02:25:45.167Z,15.70
2018-12-14T02:28:12.590Z,15.10
2018-12-14T02:36:23.767Z,14.03
2018-12-14T02:38:51.004Z,14.45
2018-12-14T02:41:24.680Z,15.65
2018-12-14T02:43:52.051Z,15.18
2018-12-14T02:46:19.412Z,15.13
2018-12-14T02:48:46.821Z,15.43
2018-12-14T02:51:14.322Z,14.40
2018-12-14T02:53:41.668Z,14.55
2018-12-14T02:56:08.999Z,16.02
2018-12-14T02:58:36.296Z,13.38
2018-12-14T03:01:03.716Z,13.70
2018-12-14T03:03:35.080Z,14.47
2018-12-14T03:06:02.394Z,14.53
2018-12-14T03:08:29.676Z,13.50
2018-12-14T03:10:56.997Z,13.68
2018-12-14T03:13:24.304Z,15.18
2018-12-14T03:15:51.607Z,14.18
2018-12-14T03:18:19.888Z,14.98
2018-12-14T03:20:47.289Z,14.47
2018-12-14T03:23:14.609Z,14.18
2018-12-14T03:25:42.049Z,13.40
2018-12-14T03:28:09.509Z,14.80
2018-12-14T03:30:36.807Z,14.13
2018-12-14T03:33:04.186Z,14.65
2018-12-14T03:35:31.480Z,14.63
2018-12-14T03:38:04.249Z,14.10
2018-12-14T03:40:31.549Z,13.80
2018-12-14T03:42:58.909Z,13.95
2018-12-14T03:45:26.415Z,16.30
2018-12-14T03:47:53.717Z,15.95
2018-12-14T03:50:21.033Z,14.65
2018-12-14T03:52:52.353Z,14.53
2018-12-14T03:55:19.694Z,13.68
2018-12-14T03:57:47.051Z,15.93
2018-12-14T04:00:14.364Z,13.93
2018-12-14T04:02:41.696Z,12.60
2018-12-14T04:05:09.989Z,14.00
2018-12-14T04:07:37.249Z,13.75
2018-12-14T04:10:05.289Z,14.87
2018-12-14T04:12:32.898Z,14.45
2018-12-14T04:15:00.299Z,13.60
2018-12-14T04:17:27.601Z,14.10
2018-12-14T04:19:54.953Z,12.35
2018-12-14T04:22:22.262Z,12.95
2018-12-14T04:25:00.080Z,13.00
2018-12-14T04:27:27.486Z,13.43
2018-12-14T04:32:46.488Z,12.80
2018-12-14T04:35:13.801Z,12.23
2018-12-14T04:37:41.164Z,12.28
2018-12-14T04:40:08.604Z,14.33
2018-12-14T04:42:36.216Z,15.28
2018-12-14T04:45:03.950Z,14.23
2018-12-14T04:47:31.254Z,13.30
2018-12-14T04:49:58.569Z,14.53
2018-12-14T04:52:26.076Z,14.03
2018-12-14T04:54:53.466Z,12.82
2018-12-14T04:57:20.865Z,14.73
2018-12-14T04:59:48.144Z,14.85
2018-12-14T05:05:01.328Z,13.20
2018-12-14T05:07:28.713Z,14.05
2018-12-14T05:09:56.044Z,13.53
2018-12-14T05:12:23.354Z,14.20
2018-12-14T05:14:50.913Z,15.20
2018-12-14T05:17:18.262Z,12.70
2018-12-14T05:19:45.583Z,12.75
2018-12-14T05:22:12.903Z,14.90
2018-12-14T05:24:41.236Z,14.50
2018-12-14T05:27:08.744Z,13.45
2018-12-14T05:29:36.313Z,12.98
2018-12-14T05:37:40.122Z,12.20
2018-12-14T05:40:07.503Z,13.30
2018-12-14T05:42:34.836Z,12.68
2018-12-14T05:45:02.174Z,12.25
2018-12-14T05:47:29.535Z,12.05
2018-12-14T05:49:56.955Z,12.55
2018-12-14T05:52:24.977Z,11.15
2018-12-14T05:54:52.309Z,12.28
2018-12-14T05:57:25.516Z,13.15
2018-12-14T05:59:53.776Z,10.58
2018-12-14T06:02:21.310Z,10.55
2018-12-14T06:04:48.733Z,11.90
2018-12-14T06:07:16.072Z,11.57
2018-12-14T06:12:09.094Z,12.33
2018-12-14T06:14:37.092Z,10.88
2018-12-14T06:22:42.962Z,9.50
2018-12-14T06:25:10.378Z,11.73
2018-12-14T06:27:37.753Z,11.63
2018-12-14T06:30:05.380Z,10.68
2018-12-14T06:32:40.215Z,10.75
2018-12-14T06:35:07.664Z,11.75
2018-12-14T06:37:35.018Z,14.38
2018-12-14T06:40:02.444Z,12.55
2018-12-14T06:42:29.743Z,10.32
2018-12-14T06:44:57.451Z,12.78
2018-12-14T06:50:10.485Z,12.25
2018-12-14T06:52:37.972Z,11.50
2018-12-14T06:55:05.812Z,11.75
2018-12-14T06:57:39.916Z,12.20
2018-12-14T07:00:07.389Z,12.35
2018-12-14T07:02:45.092Z,10.82
2018-12-14T07:05:13.348Z,12.50
2018-12-14T07:07:40.643Z,11.33
2018-12-14T07:10:07.964Z,11.73
2018-12-14T07:12:35.324Z,11.30
2018-12-14T07:15:02.949Z,12.45
2018-12-14T07:17:46.425Z,11.95
2018-12-14T07:20:13.840Z,11.80
2018-12-14T07:22:41.458Z,12.93
2018-12-14T07:25:08.974Z,13.83
2018-12-14T07:27:37.321Z,13.62
2018-12-14T07:30:04.619Z,13.65
2018-12-14T07:32:31.932Z,13.18
2018-12-14T07:34:59.231Z,12.35
2018-12-14T07:37:26.553Z,14.25
2018-12-14T07:39:55.408Z,12.70
2018-12-14T07:42:22.733Z,12.55
2018-12-14T07:44:50.493Z,13.80
2018-12-14T07:47:35.810Z,12.80
2018-12-14T07:50:03.360Z,12.20
2018-12-14T07:52:30.786Z,12.55
2018-12-14T07:54:58.070Z,12.60
2018-12-14T07:57:25.434Z,12.33
2018-12-14T07:59:52.728Z,14.43
2018-12-14T08:02:23.316Z,14.18
2018-12-14T08:04:50.752Z,13.35
2018-12-14T08:07:18.191Z,14.18
2018-12-14T08:09:45.500Z,12.28
2018-12-14T08:12:12.837Z,15.58
2018-12-14T08:14:40.136Z,12.50
2018-12-14T08:17:11.364Z,14.73
2018-12-14T08:19:38.604Z,14.47
2018-12-14T08:22:05.999Z,14.50
2018-12-14T08:24:33.324Z,13.60
2018-12-14T08:27:00.640Z,11.50
2018-12-14T08:29:28.037Z,12.10
2018-12-14T08:31:55.369Z,14.35
2018-12-14T08:39:56.728Z,14.47
2018-12-14T08:42:24.068Z,13.40
2018-12-14T08:44:51.458Z,13.83
2018-12-14T08:47:20.938Z,13.48
2018-12-14T08:49:48.268Z,14.13
2018-12-14T08:52:15.548Z,14.90
2018-12-14T08:54:46.304Z,12.70
2018-12-14T08:57:13.560Z,13.30
2018-12-14T08:59:40.860Z,13.85
2018-12-14T09:02:08.272Z,12.50
2018-12-14T09:07:24.550Z,12.80
2018-12-14T09:09:50.320Z,13.10
2018-12-14T09:12:17.643Z,12.13
2018-12-14T09:14:44.936Z,12.25
2018-12-14T09:17:12.241Z,10.60
2018-12-14T09:19:39.987Z,11.63
2018-12-14T09:22:07.307Z,12.20
2018-12-14T09:24:34.568Z,12.80
2018-12-14T09:27:03.029Z,11.57
2018-12-14T09:29:30.368Z,12.73
2018-12-14T09:31:59.232Z,11.12
2018-12-14T09:34:26.635Z,11.97
2018-12-14T09:36:53.963Z,11.75
2018-12-14T09:44:58.345Z,13.70
2018-12-14T09:47:25.679Z,12.60
2018-12-14T09:49:53.050Z,13.15
2018-12-14T09:52:26.900Z,12.70
2018-12-14T09:54:59.427Z,11.60
2018-12-14T09:57:26.812Z,12.70
2018-12-14T09:59:54.256Z,11.68
2018-12-14T10:02:21.655Z,10.58
2018-12-14T10:04:49.228Z,11.85
2018-12-14T10:07:16.681Z,13.93
2018-12-14T10:09:58.348Z,10.90
2018-12-14T10:12:26.401Z,12.15
2018-12-14T10:14:53.737Z,11.70
2018-12-14T10:17:21.618Z,11.18
2018-12-14T10:19:53.188Z,10.45
2018-12-14T10:22:20.556Z,12.73
2018-12-14T10:24:52.070Z,12.03
2018-12-14T10:27:19.400Z,11.85
2018-12-14T10:30:00.604Z,11.95
2018-12-14T10:32:28.671Z,11.20
2018-12-14T10:34:59.595Z,11.20
2018-12-14T10:37:26.899Z,10.72
2018-12-14T10:39:54.307Z,12.65
2018-12-14T10:42:21.631Z,11.38
2018-12-14T10:44:54.948Z,11.12
2018-12-14T10:47:22.405Z,12.58
2018-12-14T10:49:49.874Z,10.70
2018-12-14T10:52:17.604Z,11.97
2018-12-14T10:54:45.083Z,10.93
2018-12-14T10:57:16.334Z,10.82
2018-12-14T10:59:43.906Z,12.70
2018-12-14T11:02:11.264Z,11.78
2018-12-14T11:04:38.617Z,10.63
2018-12-14T11:07:11.224Z,11.53
2018-12-14T11:09:38.551Z,11.60
2018-12-14T11:12:06.657Z,12.95
2018-12-14T11:14:34.637Z,12.37
2018-12-14T11:17:01.990Z,10.93
2018-12-14T11:19:29.388Z,11.33
2018-12-14T11:21:56.757Z,9.90
2018-12-14T11:24:27.520Z,11.57
2018-12-14T11:26:54.829Z,11.18
2018-12-14T11:29:22.178Z,10.65
2018-12-14T11:31:49.617Z,10.38
2018-12-14T11:34:16.985Z,11.05
2018-12-14T11:36:44.392Z,10.35
2018-12-14T11:39:11.791Z,10.03
2018-12-14T11:47:18.188Z,12.00
2018-12-14T11:49:43.156Z,10.95
2018-12-14T11:52:18.653Z,11.75
2018-12-14T11:54:46.071Z,11.73
2018-12-14T11:57:14.090Z,11.73
2018-12-14T11:59:41.384Z,10.75
2018-12-14T12:02:08.988Z,10.72
2018-12-14T12:04:36.508Z,11.57
2018-12-14T12:07:03.841Z,10.58
2018-12-14T12:09:31.167Z,12.00
2018-12-14T12:12:10.544Z,10.08
2018-12-14T12:14:37.904Z,9.13
2018-12-14T12:17:05.513Z,10.32
2018-12-14T12:19:32.865Z,9.70
2018-12-14T12:22:00.253Z,9.00
2018-12-14T12:24:27.626Z,9.53
2018-12-14T12:26:55.055Z,10.93
2018-12-14T12:29:23.080Z,11.43
2018-12-14T12:31:57.888Z,10.03
2018-12-14T12:34:25.222Z,9.83
2018-12-14T12:36:56.604Z,10.20
2018-12-14T12:39:23.923Z,12.33
2018-12-14T12:41:51.217Z,12.03
2018-12-14T12:44:19.063Z,10.45
2018-12-14T12:52:28.747Z,11.55
2018-12-14T12:54:56.624Z,10.90
2018-12-14T12:57:23.914Z,11.65
2018-12-14T12:59:51.330Z,11.40
2018-12-14T13:02:18.659Z,15.40
2018-12-14T13:04:46.317Z,13.58
2018-12-14T13:07:13.726Z,11.95
2018-12-14T13:09:41.214Z,11.22
2018-12-14T13:12:08.577Z,13.43
2018-12-14T13:14:40.005Z,11.45
2018-12-14T13:17:08.624Z,11.68
2018-12-14T13:19:35.978Z,13.78
2018-12-14T13:22:03.301Z,11.00
2018-12-14T13:24:30.588Z,10.72
2018-12-14T13:26:59.060Z,10.40
2018-12-14T13:32:17.357Z,9.23
2018-12-14T13:34:48.522Z,9.53
2018-12-14T13:37:16.208Z,10.53
2018-12-14T13:39:47.826Z,9.83
2018-12-14T13:42:15.285Z,10.05
2018-12-14T13:44:46.526Z,10.43
2018-12-14T13:47:12.185Z,11.60
2018-12-14T13:49:39.518Z,10.38
2018-12-14T13:52:06.839Z,9.85
2018-12-14T13:54:40.835Z,11.00
2018-12-14T13:57:08.251Z,11.43
2018-12-14T13:59:35.534Z,8.80
2018-12-14T14:02:03.977Z,11.55
2018-12-14T14:07:18.766Z,10.35
2018-12-14T14:09:46.086Z,9.70
2018-12-14T14:12:13.380Z,10.50
2018-12-14T14:14:40.701Z,11.08
2018-12-14T14:17:08.140Z,9.88
2018-12-14T14:19:35.677Z,11.40
2018-12-14T14:22:03.098Z,11.53
2018-12-14T14:24:31.477Z,11.40
2018-12-14T14:26:58.765Z,11.83
2018-12-14T14:29:26.218Z,9.35
2018-12-14T14:31:53.603Z,9.85
2018-12-14T14:34:25.447Z,9.50
2018-12-14T14:36:52.752Z,10.50
2018-12-14T14:39:20.431Z,9.63
2018-12-14T14:41:47.929Z,11.75
2018-12-14T14:44:15.292Z,10.60
2018-12-14T14:46:43.234Z,10.98
2018-12-14T14:49:10.599Z,10.10
2018-12-14T14:51:39.720Z,10.35
2018-12-14T14:54:07.107Z,10.00
2018-12-14T14:56:40.150Z,10.70
2018-12-14T14:59:07.479Z,9.55
2018-12-14T15:01:35.417Z,10.40
2018-12-14T15:04:03.819Z,10.50
2018-12-14T15:09:23.301Z,10.40
2018-12-14T15:11:57.349Z,10.90
2018-12-14T15:14:27.637Z,9.53
2018-12-14T15:16:54.944Z,8.95
2018-12-14T15:19:22.597Z,9.45
2018-12-14T15:21:50.169Z,9.78
2018-12-14T15:24:17.507Z,9.78
2018-12-14T15:26:44.818Z,11.20
2018-12-14T15:29:12.256Z,9.35
2018-12-14T15:31:40.201Z,10.32
2018-12-14T15:34:14.178Z,10.25
2018-12-14T15:39:25.886Z,10.32
2018-12-14T15:41:53.390Z,9.15
2018-12-14T15:44:20.737Z,11.83
2018-12-14T15:46:48.231Z,10.43
2018-12-14T15:49:15.529Z,10.60
2018-12-14T15:51:42.948Z,9.83
2018-12-14T15:54:10.273Z,10.78
2018-12-14T15:56:37.603Z,10.65
2018-12-14T15:59:04.922Z,9.88
2018-12-14T16:01:32.233Z,12.33
2018-12-14T16:03:59.693Z,11.78
2018-12-14T16:06:28.098Z,11.78
2018-12-14T16:08:55.646Z,12.00
2018-12-14T16:11:23.021Z,10.00
2018-12-14T16:13:50.437Z,10.98
2018-12-14T16:16:17.773Z,10.90
2018-12-14T16:18:45.229Z,10.28
2018-12-14T16:21:12.572Z,11.15
2018-12-14T16:23:52.593Z,9.38
2018-12-14T16:26:19.901Z,9.95
2018-12-14T16:28:47.333Z,10.98
2018-12-14T16:31:15.729Z,10.28
2018-12-14T16:33:43.086Z,11.08
2018-12-14T16:38:56.544Z,10.10
2018-12-14T16:41:23.905Z,10.18
2018-12-14T16:43:51.321Z,10.40
2018-12-14T16:46:18.666Z,10.03
2018-12-14T16:48:46.370Z,11.25
2018-12-14T16:51:14.717Z,10.50
2018-12-14T16:53:47.684Z,9.45
2018-12-14T16:56:15.374Z,9.53
2018-12-14T16:58:47.299Z,11.15
2018-12-14T17:01:14.698Z,9.90
2018-12-14T17:03:42.056Z,11.28
2018-12-14T17:06:09.428Z,10.53
2018-12-14T17:08:37.825Z,10.25
2018-12-14T17:11:12.283Z,11.05
2018-12-14T17:13:40.808Z,10.35
2018-12-14T17:16:08.239Z,10.40
2018-12-14T17:18:37.591Z,10.32
2018-12-14T17:21:05.036Z,10.40
2018-12-14T17:23:34.342Z,10.08
2018-12-14T17:26:02.635Z,11.15
2018-12-14T17:28:30.045Z,10.20
2018-12-14T17:30:57.525Z,11.08
2018-12-14T17:33:24.909Z,12.30
2018-12-14T17:35:52.310Z,10.40
2018-12-14T17:38:34.312Z,10.38
2018-12-14T17:41:01.687Z,10.82
2018-12-14T17:43:29.094Z,11.25
2018-12-14T17:45:56.971Z,11.45
2018-12-14T17:48:27.646Z,12.47
2018-12-14T17:50:54.977Z,12.73
2018-12-14T17:53:22.450Z,10.28
2018-12-14T17:55:54.338Z,10.20
2018-12-14T17:58:21.711Z,10.65
2018-12-14T18:00:49.697Z,11.48
2018-12-14T18:03:17.127Z,9.73
2018-12-14T18:05:44.683Z,12.23
2018-12-14T18:08:12.732Z,12.18
2018-12-14T18:10:48.249Z,12.78
2018-12-14T18:13:15.665Z,10.90
2018-12-14T18:15:46.362Z,11.55
2018-12-14T18:18:13.412Z,11.90
2018-12-14T18:20:40.797Z,12.20
2018-12-14T18:23:08.188Z,10.65
2018-12-14T18:25:35.564Z,13.10
2018-12-14T18:28:06.620Z,12.80
2018-12-14T18:30:34.580Z,11.00
2018-12-14T18:33:02.063Z,12.90
2018-12-14T18:35:29.859Z,11.90
2018-12-14T18:40:46.571Z,13.43
2018-12-14T18:43:13.968Z,12.78
2018-12-14T18:45:41.381Z,11.75
2018-12-14T18:48:09.069Z,11.85
2018-12-14T18:50:36.506Z,13.30
2018-12-14T18:53:04.226Z,12.90
2018-12-14T18:55:31.580Z,12.65
2018-12-14T18:58:05.400Z,12.10
2018-12-14T19:00:33.747Z,12.63
2018-12-14T19:03:01.129Z,12.55
2018-12-14T19:05:28.480Z,10.75
2018-12-14T19:10:42.918Z,13.80
2018-12-14T19:13:11.414Z,13.48
2018-12-14T19:15:39.651Z,11.28
2018-12-14T19:18:08.180Z,12.10
2018-12-14T19:20:40.660Z,12.65
2018-12-14T19:23:08.088Z,12.43
2018-12-14T19:25:35.470Z,13.70
2018-12-14T19:28:03.844Z,11.75
2018-12-14T19:30:31.456Z,13.22
2018-12-14T19:33:00.956Z,14.33
2018-12-14T19:35:28.530Z,13.43
2018-12-14T19:40:47.453Z,12.13
2018-12-14T19:43:16.908Z,14.15
2018-12-14T19:45:44.771Z,12.78
2018-12-14T19:48:12.223Z,13.90
2018-12-14T19:50:39.561Z,13.55
2018-12-14T19:53:07.190Z,13.25
2018-12-14T19:55:34.598Z,14.73
2018-12-14T19:58:03.416Z,14.98
2018-12-14T20:00:43.793Z,14.18
2018-12-14T20:03:13.252Z,13.32
2018-12-14T20:08:17.250Z,14.98
2018-12-14T20:10:44.856Z,18.27
2018-12-14T20:13:17.631Z,15.40
2018-12-14T20:15:45.198Z,12.93
2018-12-14T20:18:16.530Z,15.75
2018-12-14T20:20:43.879Z,14.58
2018-12-14T20:23:11.764Z,13.50
2018-12-14T20:25:39.128Z,14.15
2018-12-14T20:28:06.534Z,13.18
2018-12-14T20:30:33.861Z,13.40
2018-12-14T20:33:01.302Z,16.35
2018-12-14T20:35:28.883Z,14.05
2018-12-14T20:37:56.781Z,15.72
2018-12-14T20:40:24.150Z,16.40
2018-12-14T20:42:51.483Z,15.90
2018-12-14T20:45:18.957Z,13.53
2018-12-14T20:47:46.277Z,16.52
2018-12-14T20:50:13.698Z,15.63
2018-12-14T20:52:50.752Z,14.55
2018-12-14T20:55:18.144Z,14.83
2018-12-14T20:57:45.468Z,15.98
2018-12-14T21:00:13.045Z,14.25
2018-12-14T21:02:43.378Z,12.55
2018-12-14T21:05:10.775Z,15.55
2018-12-14T21:07:38.172Z,14.15
2018-12-14T21:10:06.278Z,14.03
2018-12-14T21:12:33.665Z,13.75
2018-12-14T21:15:01.001Z,12.70
2018-12-14T21:17:28.433Z,14.33
2018-12-14T21:19:55.778Z,15.05
2018-12-14T21:22:23.153Z,12.45
2018-12-14T21:24:54.845Z,13.40
2018-12-14T21:27:22.834Z,12.93
2018-12-14T21:29:50.211Z,13.60
2018-12-14T21:32:17.618Z,12.18
2018-12-14T21:34:44.972Z,13.70
2018-12-14T21:37:12.336Z,13.48
2018-12-14T21:39:41.741Z,13.10
2018-12-14T21:42:10.078Z,14.70
2018-12-14T21:44:37.504Z,13.83
2018-12-14T21:47:04.900Z,13.75
2018-12-14T21:49:33.171Z,15.60
2018-12-14T21:54:55.598Z,14.87
2018-12-14T21:57:23.049Z,13.90
2018-12-14T21:59:50.539Z,15.55
2018-12-14T22:02:17.910Z,12.85
2018-12-14T22:04:45.260Z,13.22
2018-12-14T22:07:13.233Z,15.48
2018-12-14T22:09:40.647Z,14.68
2018-12-14T22:12:08.006Z,14.20
2018-12-14T22:14:35.342Z,15.40
2018-12-14T22:17:02.670Z,15.40
2018-12-14T22:19:30.025Z,15.18
2018-12-14T22:22:13.962Z,14.58
2018-12-14T22:27:14.824Z,13.65
2018-12-14T22:29:46.655Z,13.65
2018-12-14T22:32:14.024Z,14.15
2018-12-14T22:34:41.386Z,14.33
2018-12-14T22:37:08.775Z,13.90
2018-12-14T22:39:46.145Z,13.55
2018-12-14T22:42:13.432Z,13.70
2018-12-14T22:44:41.422Z,14.40
2018-12-14T22:47:08.799Z,13.32
2018-12-14T22:49:36.785Z,13.90
2018-12-14T22:52:05.175Z,12.70
2018-12-14T22:54:36.750Z,13.18
2018-12-14T22:57:04.177Z,13.72
2018-12-14T22:59:31.584Z,13.78
2018-12-14T23:01:59.112Z,12.80
2018-12-14T23:04:27.488Z,14.50
2018-12-14T23:07:02.958Z,13.25
2018-12-14T23:09:30.410Z,13.00
2018-12-14T23:12:02.629Z,13.05
2018-12-14T23:14:34.097Z,15.03
2018-12-14T23:17:01.640Z,13.98
2018-12-14T23:19:29.031Z,12.13
2018-12-14T23:21:56.368Z,13.13
2018-12-14T23:24:24.634Z,13.80
2018-12-14T23:26:51.965Z,15.23
2018-12-14T23:29:19.362Z,13.03
2018-12-14T23:31:46.731Z,14.25
2018-12-14T23:34:14.058Z,12.78
2018-12-14T23:36:41.413Z,12.28
2018-12-14T23:39:08.695Z,11.88
2018-12-14T23:41:36.081Z,14.20
2018-12-14T23:44:03.911Z,13.15
2018-12-14T23:46:31.249Z,13.72
2018-12-14T23:48:58.548Z,14.58
2018-12-14T23:51:25.927Z,13.53
2018-12-14T23:53:53.276Z,13.03
2018-12-14T23:56:20.629Z,14.10
2018-12-14T23:58:48.042Z,12.88
